T7ZEM ENSB-ENTC
Flight info
| Callsign | T7ZEM |
|---|---|
| Flight time | 2h 1m |
| Altitude | 29000 |
| Route | AMPIS P853 LOMVI |
| Aircraft | TBM8/L-SDFGRWY/S |
Departure
| Time | 2026-05-05 15:05 |
|---|---|
| Airport | Svalbard Airport, Longyear (ENSB) |
Arrival
| Time | 2026-05-05 17:06 |
|---|---|
| Airport | Tromsø Airport (ENTC) |
| Time | Latitude | Longitude | Altitude | Speed | Heading |
|---|---|---|---|---|---|
| 2026-05-05 14:55 | 78.24651 | 15.48992 | 82 ft | 0 kts | 102° |
| 2026-05-05 15:00 | 78.24650 | 15.49002 | 82 ft | 3 kts | 102° |
| 2026-05-05 15:00 | 78.24628 | 15.48893 | 84 ft | 7 kts | 261° |
| 2026-05-05 15:00 | 78.24599 | 15.48612 | 84 ft | 12 kts | 243° |
| 2026-05-05 15:01 | 78.24586 | 15.48239 | 82 ft | 6 kts | 256° |
| 2026-05-05 15:01 | 78.24551 | 15.48011 | 82 ft | 11 kts | 232° |
| 2026-05-05 15:01 | 78.24560 | 15.47577 | 82 ft | 16 kts | 284° |
| 2026-05-05 15:01 | 78.24592 | 15.46990 | 84 ft | 20 kts | 282° |
| 2026-05-05 15:02 | 78.24630 | 15.46256 | 83 ft | 24 kts | 284° |
| 2026-05-05 15:02 | 78.24677 | 15.45401 | 82 ft | 27 kts | 284° |
| 2026-05-05 15:02 | 78.24722 | 15.44566 | 84 ft | 24 kts | 285° |
| 2026-05-05 15:02 | 78.24764 | 15.43821 | 82 ft | 22 kts | 288° |
| 2026-05-05 15:03 | 78.24800 | 15.43194 | 84 ft | 16 kts | 287° |
| 2026-05-05 15:03 | 78.24812 | 15.42758 | 82 ft | 12 kts | 262° |
| 2026-05-05 15:03 | 78.24821 | 15.42551 | 82 ft | 0 kts | 11° |
| 2026-05-05 15:03 | 78.24828 | 15.42574 | 85 ft | 5 kts | 65° |
| 2026-05-05 15:04 | 78.24788 | 15.43405 | 83 ft | 53 kts | 105° |
| 2026-05-05 15:04 | 78.24636 | 15.45941 | 136 ft | 96 kts | 103° |
| 2026-05-05 15:04 | 78.24440 | 15.49371 | 367 ft | 115 kts | 92° |
| 2026-05-05 15:04 | 78.24232 | 15.53552 | 613 ft | 136 kts | 101° |
| 2026-05-05 15:05 | 78.23718 | 15.62755 | 1593 ft | 142 kts | 98° |
| 2026-05-05 15:05 | 78.23445 | 15.67347 | 2225 ft | 142 kts | 105° |
| 2026-05-05 15:05 | 78.22874 | 15.71451 | 2762 ft | 147 kts | 119° |
| 2026-05-05 15:06 | 78.22273 | 15.75484 | 3317 ft | 146 kts | 115° |
| 2026-05-05 15:06 | 78.21680 | 15.79552 | 3855 ft | 147 kts | 115° |
| 2026-05-05 15:06 | 78.21085 | 15.83626 | 4376 ft | 147 kts | 114° |
| 2026-05-05 15:06 | 78.20485 | 15.87709 | 4899 ft | 148 kts | 114° |
| 2026-05-05 15:07 | 78.19884 | 15.91811 | 5398 ft | 149 kts | 115° |
| 2026-05-05 15:07 | 78.19277 | 15.95932 | 5888 ft | 150 kts | 115° |
| 2026-05-05 15:07 | 78.18671 | 16.00049 | 6379 ft | 152 kts | 116° |
| 2026-05-05 15:07 | 78.18053 | 16.04230 | 6853 ft | 153 kts | 116° |
| 2026-05-05 15:08 | 78.17504 | 16.08617 | 7309 ft | 152 kts | 111° |
| 2026-05-05 15:08 | 78.16928 | 16.13015 | 7785 ft | 154 kts | 114° |
| 2026-05-05 15:08 | 78.16353 | 16.17454 | 8295 ft | 156 kts | 113° |
| 2026-05-05 15:08 | 78.15776 | 16.21930 | 8807 ft | 157 kts | 114° |
| 2026-05-05 15:09 | 78.15191 | 16.26460 | 9292 ft | 159 kts | 114° |
| 2026-05-05 15:09 | 78.14596 | 16.31079 | 9704 ft | 163 kts | 114° |
| 2026-05-05 15:09 | 78.13989 | 16.35734 | 10185 ft | 163 kts | 115° |
| 2026-05-05 15:09 | 78.13395 | 16.40349 | 10658 ft | 164 kts | 114° |
| 2026-05-05 15:10 | 78.12786 | 16.45069 | 11120 ft | 166 kts | 114° |
| 2026-05-05 15:10 | 78.12170 | 16.49820 | 11582 ft | 167 kts | 114° |
| 2026-05-05 15:10 | 78.11543 | 16.54605 | 12086 ft | 169 kts | 114° |
| 2026-05-05 15:10 | 78.10913 | 16.59434 | 12547 ft | 170 kts | 114° |
| 2026-05-05 15:11 | 78.10274 | 16.64293 | 13010 ft | 172 kts | 114° |
| 2026-05-05 15:11 | 78.09632 | 16.69205 | 13473 ft | 173 kts | 114° |
| 2026-05-05 15:11 | 78.08981 | 16.74155 | 13934 ft | 175 kts | 114° |
| 2026-05-05 15:11 | 78.08332 | 16.79075 | 14345 ft | 176 kts | 114° |
| 2026-05-05 15:12 | 78.07669 | 16.84104 | 14730 ft | 178 kts | 114° |
| 2026-05-05 15:12 | 78.06997 | 16.89157 | 15148 ft | 179 kts | 114° |
| 2026-05-05 15:12 | 78.06323 | 16.94238 | 15548 ft | 181 kts | 114° |
| 2026-05-05 15:12 | 78.05639 | 16.99372 | 15942 ft | 182 kts | 114° |
| 2026-05-05 15:13 | 78.04953 | 17.04515 | 16337 ft | 183 kts | 114° |
| 2026-05-05 15:13 | 78.04260 | 17.09700 | 16763 ft | 185 kts | 114° |
| 2026-05-05 15:13 | 78.03559 | 17.14922 | 17160 ft | 186 kts | 114° |
| 2026-05-05 15:13 | 78.02851 | 17.20181 | 17560 ft | 188 kts | 114° |
| 2026-05-05 15:14 | 78.02147 | 17.25412 | 17954 ft | 189 kts | 114° |
| 2026-05-05 15:14 | 78.01425 | 17.30752 | 18312 ft | 191 kts | 114° |
| 2026-05-05 15:14 | 78.00693 | 17.36138 | 18647 ft | 193 kts | 114° |
| 2026-05-05 15:14 | 77.99959 | 17.41547 | 18999 ft | 193 kts | 115° |
| 2026-05-05 15:15 | 77.99223 | 17.46954 | 19361 ft | 194 kts | 115° |
| 2026-05-05 15:15 | 77.98482 | 17.52379 | 19711 ft | 195 kts | 115° |
| 2026-05-05 15:15 | 77.97736 | 17.57824 | 20045 ft | 196 kts | 116° |
| 2026-05-05 15:15 | 77.96986 | 17.63289 | 20374 ft | 197 kts | 116° |
| 2026-05-05 15:16 | 77.96206 | 17.68617 | 20658 ft | 202 kts | 126° |
| 2026-05-05 15:16 | 77.94948 | 17.71934 | 20967 ft | 216 kts | 161° |
| 2026-05-05 15:16 | 77.93429 | 17.72518 | 21301 ft | 220 kts | 173° |
| 2026-05-05 15:16 | 77.91895 | 17.72820 | 21639 ft | 221 kts | 172° |
| 2026-05-05 15:17 | 77.90359 | 17.73186 | 21975 ft | 221 kts | 172° |
| 2026-05-05 15:17 | 77.88819 | 17.73560 | 22312 ft | 222 kts | 172° |
| 2026-05-05 15:17 | 77.87276 | 17.73929 | 22645 ft | 222 kts | 172° |
| 2026-05-05 15:17 | 77.85726 | 17.74297 | 22978 ft | 223 kts | 172° |
| 2026-05-05 15:18 | 77.84173 | 17.74664 | 23302 ft | 224 kts | 172° |
| 2026-05-05 15:18 | 77.82615 | 17.75034 | 23618 ft | 224 kts | 172° |
| 2026-05-05 15:18 | 77.81073 | 17.75399 | 23890 ft | 225 kts | 172° |
| 2026-05-05 15:18 | 77.79506 | 17.75771 | 24133 ft | 226 kts | 172° |
| 2026-05-05 15:19 | 77.77931 | 17.76138 | 24386 ft | 227 kts | 172° |
| 2026-05-05 15:19 | 77.76350 | 17.76510 | 24642 ft | 228 kts | 172° |
| 2026-05-05 15:19 | 77.74765 | 17.76883 | 24889 ft | 229 kts | 173° |
| 2026-05-05 15:19 | 77.73168 | 17.77256 | 25129 ft | 230 kts | 172° |
| 2026-05-05 15:20 | 77.71570 | 17.77622 | 25364 ft | 231 kts | 173° |
| 2026-05-05 15:20 | 77.69956 | 17.77999 | 25570 ft | 234 kts | 172° |
| 2026-05-05 15:20 | 77.68321 | 17.78391 | 25753 ft | 237 kts | 172° |
| 2026-05-05 15:20 | 77.66693 | 17.78760 | 25969 ft | 238 kts | 172° |
| 2026-05-05 15:21 | 77.65041 | 17.79136 | 26198 ft | 238 kts | 172° |
| 2026-05-05 15:21 | 77.63384 | 17.79519 | 26432 ft | 239 kts | 172° |
| 2026-05-05 15:21 | 77.61722 | 17.79901 | 26648 ft | 240 kts | 172° |
| 2026-05-05 15:21 | 77.60050 | 17.80281 | 26843 ft | 241 kts | 172° |
| 2026-05-05 15:22 | 77.58370 | 17.80664 | 27057 ft | 243 kts | 172° |
| 2026-05-05 15:22 | 77.56652 | 17.80997 | 27156 ft | 247 kts | 170° |
| 2026-05-05 15:22 | 77.54990 | 17.82199 | 27501 ft | 235 kts | 147° |
| 2026-05-05 15:22 | 77.53437 | 17.84766 | 27613 ft | 247 kts | 165° |
| 2026-05-05 15:23 | 77.51867 | 17.87049 | 27829 ft | 235 kts | 143° |
| 2026-05-05 15:23 | 77.50497 | 17.91129 | 28030 ft | 235 kts | 143° |
| 2026-05-05 15:23 | 77.49037 | 17.94656 | 28224 ft | 239 kts | 152° |
| 2026-05-05 15:23 | 77.47420 | 17.96736 | 28412 ft | 245 kts | 167° |
| 2026-05-05 15:24 | 77.45717 | 17.97533 | 28624 ft | 246 kts | 169° |
| 2026-05-05 15:24 | 77.44017 | 17.98426 | 28822 ft | 246 kts | 169° |
| 2026-05-05 15:24 | 77.42311 | 17.99278 | 29017 ft | 247 kts | 169° |
| 2026-05-05 15:24 | 77.40617 | 18.00082 | 29130 ft | 251 kts | 170° |
| 2026-05-05 15:25 | 77.38852 | 18.00852 | 29135 ft | 258 kts | 171° |
| 2026-05-05 15:25 | 77.37038 | 18.01641 | 29143 ft | 265 kts | 170° |
| 2026-05-05 15:25 | 77.35180 | 18.02469 | 29132 ft | 271 kts | 171° |
| 2026-05-05 15:25 | 77.33278 | 18.03297 | 29123 ft | 278 kts | 169° |
| 2026-05-05 15:26 | 77.31339 | 18.04166 | 29124 ft | 282 kts | 171° |
| 2026-05-05 15:26 | 77.29368 | 18.05035 | 29120 ft | 287 kts | 169° |
| 2026-05-05 15:26 | 77.27368 | 18.05913 | 29123 ft | 291 kts | 169° |
| 2026-05-05 15:26 | 77.25347 | 18.06768 | 29121 ft | 294 kts | 172° |
| 2026-05-05 15:27 | 77.23302 | 18.07633 | 29122 ft | 296 kts | 171° |
| 2026-05-05 15:27 | 77.21241 | 18.08550 | 29121 ft | 298 kts | 171° |
| 2026-05-05 15:27 | 77.19194 | 18.09450 | 29113 ft | 301 kts | 169° |
| 2026-05-05 15:28 | 77.14998 | 18.11267 | 29111 ft | 305 kts | 169° |
| 2026-05-05 15:28 | 77.10757 | 18.13061 | 29114 ft | 307 kts | 170° |
| 2026-05-05 15:29 | 77.06488 | 18.14892 | 29113 ft | 309 kts | 170° |
| 2026-05-05 15:29 | 77.02228 | 18.16639 | 29110 ft | 310 kts | 171° |
| 2026-05-05 15:30 | 76.97938 | 18.18514 | 29092 ft | 311 kts | 169° |
| 2026-05-05 15:30 | 76.93623 | 18.20227 | 29093 ft | 312 kts | 170° |
| 2026-05-05 15:31 | 76.89302 | 18.22087 | 29097 ft | 312 kts | 172° |
| 2026-05-05 15:31 | 76.84978 | 18.23819 | 29084 ft | 312 kts | 171° |
| 2026-05-05 15:32 | 76.80680 | 18.25599 | 29086 ft | 313 kts | 170° |
| 2026-05-05 15:32 | 76.76337 | 18.27334 | 29100 ft | 313 kts | 172° |
| 2026-05-05 15:33 | 76.72004 | 18.29118 | 29088 ft | 313 kts | 170° |
| 2026-05-05 15:33 | 76.67651 | 18.30831 | 29075 ft | 315 kts | 170° |
| 2026-05-05 15:34 | 76.63308 | 18.32568 | 29061 ft | 316 kts | 171° |
| 2026-05-05 15:34 | 76.58934 | 18.34301 | 29077 ft | 315 kts | 172° |
| 2026-05-05 15:35 | 76.54565 | 18.36019 | 29050 ft | 316 kts | 169° |
| 2026-05-05 15:35 | 76.50185 | 18.37684 | 29054 ft | 316 kts | 172° |
| 2026-05-05 15:36 | 76.45843 | 18.39427 | 29066 ft | 315 kts | 171° |
| 2026-05-05 15:36 | 76.41709 | 18.41006 | 29067 ft | 315 kts | 170° |
| 2026-05-05 15:37 | 76.37341 | 18.42712 | 29041 ft | 315 kts | 169° |
| 2026-05-05 15:37 | 76.32967 | 18.44433 | 29048 ft | 316 kts | 172° |
| 2026-05-05 15:38 | 76.28624 | 18.46065 | 29042 ft | 315 kts | 169° |
| 2026-05-05 15:38 | 76.24246 | 18.47772 | 29039 ft | 316 kts | 170° |
| 2026-05-05 15:39 | 76.19857 | 18.49413 | 29025 ft | 317 kts | 170° |
| 2026-05-05 15:39 | 76.15456 | 18.51077 | 29031 ft | 318 kts | 172° |
| 2026-05-05 15:40 | 76.11065 | 18.52717 | 29031 ft | 316 kts | 169° |
| 2026-05-05 15:40 | 76.06689 | 18.54356 | 29028 ft | 316 kts | 172° |
| 2026-05-05 15:41 | 76.02340 | 18.55976 | 29024 ft | 316 kts | 172° |
| 2026-05-05 15:41 | 75.97971 | 18.57580 | 29025 ft | 315 kts | 172° |
| 2026-05-05 15:42 | 75.93612 | 18.59194 | 29015 ft | 314 kts | 172° |
| 2026-05-05 15:42 | 75.89247 | 18.60779 | 29007 ft | 315 kts | 171° |
| 2026-05-05 15:43 | 75.84900 | 18.62275 | 29009 ft | 315 kts | 172° |
| 2026-05-05 15:43 | 75.80528 | 18.63966 | 29003 ft | 316 kts | 170° |
| 2026-05-05 15:44 | 75.76131 | 18.65460 | 29000 ft | 318 kts | 171° |
| 2026-05-05 15:44 | 75.71728 | 18.67059 | 29001 ft | 318 kts | 170° |
| 2026-05-05 15:45 | 75.67319 | 18.68548 | 29004 ft | 317 kts | 173° |
| 2026-05-05 15:45 | 75.62954 | 18.70173 | 28993 ft | 317 kts | 170° |
| 2026-05-05 15:46 | 75.58551 | 18.71630 | 28999 ft | 317 kts | 172° |
| 2026-05-05 15:46 | 75.54158 | 18.73192 | 28989 ft | 317 kts | 172° |
| 2026-05-05 15:47 | 75.49776 | 18.74683 | 28986 ft | 316 kts | 172° |
| 2026-05-05 15:47 | 75.45390 | 18.76205 | 28978 ft | 317 kts | 170° |
| 2026-05-05 15:48 | 75.41028 | 18.77662 | 28984 ft | 316 kts | 172° |
| 2026-05-05 15:48 | 75.36639 | 18.79171 | 28983 ft | 317 kts | 170° |
| 2026-05-05 15:49 | 75.32236 | 18.80636 | 28978 ft | 318 kts | 170° |
| 2026-05-05 15:49 | 75.27819 | 18.82119 | 28973 ft | 319 kts | 173° |
| 2026-05-05 15:50 | 75.23404 | 18.83575 | 28973 ft | 318 kts | 172° |
| 2026-05-05 15:50 | 75.19035 | 18.85063 | 28962 ft | 317 kts | 172° |
| 2026-05-05 15:51 | 75.14630 | 18.86468 | 28959 ft | 317 kts | 172° |
| 2026-05-05 15:51 | 75.10234 | 18.87911 | 28959 ft | 317 kts | 171° |
| 2026-05-05 15:52 | 75.05865 | 18.89330 | 28962 ft | 317 kts | 172° |
| 2026-05-05 15:52 | 75.01468 | 18.90769 | 28962 ft | 318 kts | 173° |
| 2026-05-05 15:53 | 74.97051 | 18.92157 | 28959 ft | 318 kts | 173° |
| 2026-05-05 15:53 | 74.92639 | 18.93609 | 28955 ft | 319 kts | 172° |
| 2026-05-05 15:54 | 74.88221 | 18.94972 | 28952 ft | 319 kts | 171° |
| 2026-05-05 15:54 | 74.83813 | 18.96379 | 28935 ft | 321 kts | 171° |
| 2026-05-05 15:55 | 74.79369 | 18.97747 | 28939 ft | 319 kts | 173° |
| 2026-05-05 15:55 | 74.74942 | 18.99161 | 28936 ft | 319 kts | 171° |
| 2026-05-05 15:56 | 74.70510 | 19.00482 | 28937 ft | 319 kts | 173° |
| 2026-05-05 15:56 | 74.66122 | 19.01906 | 28931 ft | 318 kts | 173° |
| 2026-05-05 15:57 | 74.61715 | 19.03225 | 28929 ft | 318 kts | 172° |
| 2026-05-05 15:57 | 74.57312 | 19.04565 | 28929 ft | 318 kts | 172° |
| 2026-05-05 15:58 | 74.52903 | 19.05908 | 28926 ft | 318 kts | 172° |
| 2026-05-05 15:58 | 74.48499 | 19.07255 | 28913 ft | 318 kts | 172° |
| 2026-05-05 15:59 | 74.44105 | 19.08557 | 28912 ft | 319 kts | 172° |
| 2026-05-05 15:59 | 74.39676 | 19.09885 | 28913 ft | 319 kts | 172° |
| 2026-05-05 16:00 | 74.35244 | 19.11177 | 28911 ft | 319 kts | 173° |
| 2026-05-05 16:00 | 74.30829 | 19.12532 | 28910 ft | 318 kts | 172° |
| 2026-05-05 16:01 | 74.26408 | 19.13760 | 28908 ft | 318 kts | 172° |
| 2026-05-05 16:01 | 74.22027 | 19.15081 | 28900 ft | 318 kts | 174° |
| 2026-05-05 16:02 | 74.17630 | 19.16348 | 28901 ft | 316 kts | 174° |
| 2026-05-05 16:02 | 74.13240 | 19.17626 | 28897 ft | 317 kts | 173° |
| 2026-05-05 16:03 | 74.08838 | 19.18877 | 28894 ft | 317 kts | 174° |
| 2026-05-05 16:03 | 74.04471 | 19.20124 | 28892 ft | 317 kts | 173° |
| 2026-05-05 16:04 | 74.00056 | 19.21389 | 28887 ft | 319 kts | 173° |
| 2026-05-05 16:04 | 73.95623 | 19.22637 | 28889 ft | 319 kts | 174° |
| 2026-05-05 16:05 | 73.91194 | 19.23871 | 28887 ft | 319 kts | 174° |
| 2026-05-05 16:05 | 73.86805 | 19.25132 | 28885 ft | 319 kts | 175° |
| 2026-05-05 16:06 | 73.82383 | 19.26319 | 28887 ft | 318 kts | 174° |
| 2026-05-05 16:06 | 73.77977 | 19.27555 | 28872 ft | 317 kts | 173° |
| 2026-05-05 16:07 | 73.73569 | 19.28761 | 28870 ft | 317 kts | 174° |
| 2026-05-05 16:07 | 73.69170 | 19.29985 | 28867 ft | 318 kts | 173° |
| 2026-05-05 16:08 | 73.64786 | 19.31139 | 28868 ft | 317 kts | 174° |
| 2026-05-05 16:08 | 73.60379 | 19.32376 | 28860 ft | 318 kts | 173° |
| 2026-05-05 16:09 | 73.55960 | 19.33541 | 28862 ft | 319 kts | 173° |
| 2026-05-05 16:09 | 73.51525 | 19.34741 | 28862 ft | 320 kts | 175° |
| 2026-05-05 16:10 | 73.47122 | 19.35901 | 28864 ft | 319 kts | 174° |
| 2026-05-05 16:10 | 73.42695 | 19.37096 | 28845 ft | 319 kts | 175° |
| 2026-05-05 16:11 | 73.38272 | 19.38246 | 28847 ft | 319 kts | 175° |
| 2026-05-05 16:12 | 73.29465 | 19.40555 | 28835 ft | 317 kts | 175° |
| 2026-05-05 16:13 | 73.18479 | 19.43393 | 28836 ft | 317 kts | 174° |
| 2026-05-05 16:13 | 73.14063 | 19.44536 | 28835 ft | 318 kts | 175° |
| 2026-05-05 16:14 | 73.05259 | 19.46769 | 28827 ft | 318 kts | 175° |
| 2026-05-05 16:15 | 72.96424 | 19.48996 | 28819 ft | 318 kts | 175° |
| 2026-05-05 16:16 | 72.87636 | 19.51187 | 28821 ft | 317 kts | 175° |
| 2026-05-05 16:17 | 72.81036 | 19.52824 | 28811 ft | 318 kts | 175° |
| 2026-05-05 16:18 | 72.74432 | 19.54443 | 28811 ft | 317 kts | 175° |
| 2026-05-05 16:19 | 72.67831 | 19.56051 | 28790 ft | 319 kts | 175° |
| 2026-05-05 16:19 | 72.61187 | 19.57653 | 28795 ft | 318 kts | 175° |
| 2026-05-05 16:20 | 72.52380 | 19.59765 | 28792 ft | 318 kts | 175° |
| 2026-05-05 16:22 | 72.41383 | 19.62372 | 28789 ft | 317 kts | 175° |
| 2026-05-05 16:23 | 72.32610 | 19.64429 | 28781 ft | 317 kts | 175° |
| 2026-05-05 16:23 | 72.26012 | 19.65967 | 28776 ft | 318 kts | 175° |
| 2026-05-05 16:24 | 72.21597 | 19.66988 | 28766 ft | 318 kts | 175° |
| 2026-05-05 16:25 | 72.15011 | 19.68499 | 28768 ft | 317 kts | 175° |
| 2026-05-05 16:25 | 72.08403 | 19.69918 | 28752 ft | 317 kts | 180° |
| 2026-05-05 16:26 | 71.99740 | 19.65677 | 28764 ft | 316 kts | 188° |
| 2026-05-05 16:27 | 71.95390 | 19.63467 | 28741 ft | 317 kts | 188° |
| 2026-05-05 16:27 | 71.91030 | 19.61290 | 28746 ft | 317 kts | 188° |
| 2026-05-05 16:28 | 71.86667 | 19.59111 | 28748 ft | 317 kts | 188° |
| 2026-05-05 16:28 | 71.82339 | 19.56963 | 28743 ft | 316 kts | 188° |
| 2026-05-05 16:29 | 71.77988 | 19.54812 | 28734 ft | 317 kts | 188° |
| 2026-05-05 16:29 | 71.73627 | 19.52672 | 28737 ft | 318 kts | 188° |
| 2026-05-05 16:30 | 71.69252 | 19.50523 | 28736 ft | 318 kts | 188° |
| 2026-05-05 16:30 | 71.64908 | 19.48414 | 28730 ft | 318 kts | 188° |
| 2026-05-05 16:31 | 71.60539 | 19.46287 | 28732 ft | 317 kts | 188° |
| 2026-05-05 16:31 | 71.56170 | 19.44186 | 28733 ft | 318 kts | 188° |
| 2026-05-05 16:32 | 71.51797 | 19.42083 | 28721 ft | 318 kts | 188° |
| 2026-05-05 16:32 | 71.47415 | 19.39982 | 28725 ft | 319 kts | 188° |
| 2026-05-05 16:33 | 71.43059 | 19.37917 | 28725 ft | 319 kts | 188° |
| 2026-05-05 16:33 | 71.38683 | 19.35832 | 28720 ft | 318 kts | 188° |
| 2026-05-05 16:34 | 71.34308 | 19.33773 | 28719 ft | 318 kts | 187° |
| 2026-05-05 16:34 | 71.29958 | 19.31734 | 28718 ft | 319 kts | 188° |
| 2026-05-05 16:35 | 71.25570 | 19.29676 | 28704 ft | 319 kts | 188° |
| 2026-05-05 16:35 | 71.21184 | 19.27637 | 28707 ft | 319 kts | 187° |
| 2026-05-05 16:36 | 71.16810 | 19.25612 | 28710 ft | 317 kts | 188° |
| 2026-05-05 16:36 | 71.12434 | 19.23597 | 28700 ft | 318 kts | 188° |
| 2026-05-05 16:37 | 71.08081 | 19.21595 | 28696 ft | 319 kts | 187° |
| 2026-05-05 16:37 | 71.03694 | 19.19590 | 28699 ft | 319 kts | 187° |
| 2026-05-05 16:38 | 70.99306 | 19.17597 | 28695 ft | 318 kts | 188° |
| 2026-05-05 16:38 | 70.94921 | 19.15605 | 28691 ft | 318 kts | 188° |
| 2026-05-05 16:39 | 70.90552 | 19.13636 | 28704 ft | 317 kts | 188° |
| 2026-05-05 16:39 | 70.86218 | 19.11693 | 28699 ft | 317 kts | 188° |
| 2026-05-05 16:40 | 70.81859 | 19.09745 | 28700 ft | 316 kts | 188° |
| 2026-05-05 16:40 | 70.77509 | 19.07809 | 28699 ft | 316 kts | 188° |
| 2026-05-05 16:41 | 70.73173 | 19.05889 | 28701 ft | 315 kts | 188° |
| 2026-05-05 16:41 | 70.68876 | 19.03992 | 28687 ft | 314 kts | 188° |
| 2026-05-05 16:42 | 70.64546 | 19.02091 | 28690 ft | 314 kts | 188° |
| 2026-05-05 16:42 | 70.60190 | 19.01000 | 28690 ft | 314 kts | 179° |
| 2026-05-05 16:43 | 70.55822 | 19.00998 | 28673 ft | 314 kts | 180° |
| 2026-05-05 16:43 | 70.51487 | 19.00899 | 28674 ft | 313 kts | 180° |
| 2026-05-05 16:44 | 70.47136 | 19.00844 | 28671 ft | 312 kts | 180° |
| 2026-05-05 16:44 | 70.42788 | 19.00774 | 28671 ft | 313 kts | 180° |
| 2026-05-05 16:45 | 70.38438 | 19.00710 | 28674 ft | 312 kts | 180° |
| 2026-05-05 16:45 | 70.34120 | 19.00640 | 28672 ft | 313 kts | 180° |
| 2026-05-05 16:46 | 70.29750 | 19.00559 | 28261 ft | 320 kts | 181° |
| 2026-05-05 16:46 | 70.27497 | 19.00508 | 27696 ft | 327 kts | 181° |
| 2026-05-05 16:46 | 70.25208 | 19.00480 | 27147 ft | 330 kts | 180° |
| 2026-05-05 16:47 | 70.22904 | 19.00460 | 26605 ft | 328 kts | 180° |
| 2026-05-05 16:47 | 70.20620 | 19.00433 | 26070 ft | 329 kts | 180° |
| 2026-05-05 16:47 | 70.18333 | 19.00391 | 25537 ft | 329 kts | 181° |
| 2026-05-05 16:47 | 70.16077 | 19.00350 | 25028 ft | 327 kts | 181° |
| 2026-05-05 16:48 | 70.13796 | 19.00311 | 24515 ft | 329 kts | 181° |
| 2026-05-05 16:48 | 70.11512 | 19.00279 | 24018 ft | 327 kts | 180° |
| 2026-05-05 16:48 | 70.09239 | 19.00180 | 23524 ft | 325 kts | 186° |
| 2026-05-05 16:48 | 70.07077 | 18.98461 | 22984 ft | 322 kts | 206° |
| 2026-05-05 16:49 | 70.05074 | 18.95578 | 22410 ft | 320 kts | 207° |
| 2026-05-05 16:49 | 70.03086 | 18.92734 | 21836 ft | 316 kts | 208° |
| 2026-05-05 16:49 | 70.01119 | 18.89960 | 21277 ft | 313 kts | 207° |
| 2026-05-05 16:49 | 69.99172 | 18.87194 | 20725 ft | 309 kts | 208° |
| 2026-05-05 16:50 | 69.97249 | 18.84470 | 20180 ft | 305 kts | 207° |
| 2026-05-05 16:50 | 69.95377 | 18.81827 | 19657 ft | 301 kts | 210° |
| 2026-05-05 16:50 | 69.93508 | 18.79171 | 19132 ft | 297 kts | 208° |
| 2026-05-05 16:50 | 69.91659 | 18.76577 | 18622 ft | 293 kts | 209° |
| 2026-05-05 16:51 | 69.89832 | 18.74025 | 18113 ft | 289 kts | 208° |
| 2026-05-05 16:51 | 69.88030 | 18.71491 | 17538 ft | 286 kts | 208° |
| 2026-05-05 16:51 | 69.86245 | 18.68990 | 16972 ft | 283 kts | 207° |
| 2026-05-05 16:51 | 69.84475 | 18.66521 | 16417 ft | 281 kts | 207° |
| 2026-05-05 16:52 | 69.82743 | 18.64106 | 15876 ft | 279 kts | 208° |
| 2026-05-05 16:52 | 69.81003 | 18.61688 | 15339 ft | 276 kts | 208° |
| 2026-05-05 16:52 | 69.79280 | 18.59293 | 14810 ft | 273 kts | 208° |
| 2026-05-05 16:52 | 69.77572 | 18.56924 | 14293 ft | 271 kts | 208° |
| 2026-05-05 16:53 | 69.75881 | 18.54583 | 13777 ft | 269 kts | 209° |
| 2026-05-05 16:53 | 69.74200 | 18.52255 | 13254 ft | 267 kts | 207° |
| 2026-05-05 16:53 | 69.72524 | 18.49949 | 12690 ft | 266 kts | 207° |
| 2026-05-05 16:53 | 69.70856 | 18.47654 | 12137 ft | 265 kts | 207° |
| 2026-05-05 16:54 | 69.69136 | 18.45820 | 11587 ft | 266 kts | 191° |
| 2026-05-05 16:54 | 69.67304 | 18.45814 | 11060 ft | 267 kts | 178° |
| 2026-05-05 16:54 | 69.65456 | 18.45984 | 10534 ft | 265 kts | 179° |
| 2026-05-05 16:54 | 69.63618 | 18.46024 | 10010 ft | 264 kts | 179° |
| 2026-05-05 16:55 | 69.61786 | 18.46090 | 9644 ft | 259 kts | 178° |
| 2026-05-05 16:55 | 69.60039 | 18.46222 | 9635 ft | 244 kts | 178° |
| 2026-05-05 16:55 | 69.58382 | 18.46311 | 9740 ft | 233 kts | 179° |
| 2026-05-05 16:55 | 69.56800 | 18.46377 | 9853 ft | 222 kts | 180° |
| 2026-05-05 16:56 | 69.55286 | 18.46456 | 9959 ft | 214 kts | 179° |
| 2026-05-05 16:56 | 69.53799 | 18.46536 | 9965 ft | 214 kts | 179° |
| 2026-05-05 16:56 | 69.52330 | 18.46609 | 9966 ft | 214 kts | 179° |
| 2026-05-05 16:56 | 69.50846 | 18.46678 | 9966 ft | 209 kts | 180° |
| 2026-05-05 16:57 | 69.49416 | 18.46715 | 9653 ft | 207 kts | 180° |
| 2026-05-05 16:57 | 69.47955 | 18.46786 | 9106 ft | 212 kts | 179° |
| 2026-05-05 16:57 | 69.46481 | 18.46891 | 8559 ft | 212 kts | 176° |
| 2026-05-05 16:57 | 69.45104 | 18.48165 | 8013 ft | 209 kts | 144° |
| 2026-05-05 16:58 | 69.44118 | 18.51099 | 7483 ft | 204 kts | 117° |
| 2026-05-05 16:58 | 69.43682 | 18.54863 | 6962 ft | 199 kts | 99° |
| 2026-05-05 16:58 | 69.43400 | 18.58687 | 6453 ft | 197 kts | 100° |
| 2026-05-05 16:58 | 69.43097 | 18.62467 | 5943 ft | 195 kts | 101° |
| 2026-05-05 16:59 | 69.42800 | 18.66208 | 5412 ft | 194 kts | 102° |
| 2026-05-05 16:59 | 69.42612 | 18.69890 | 4979 ft | 186 kts | 84° |
| 2026-05-05 16:59 | 69.43019 | 18.73133 | 4969 ft | 168 kts | 57° |
| 2026-05-05 16:59 | 69.43798 | 18.75404 | 4963 ft | 158 kts | 26° |
| 2026-05-05 17:00 | 69.44838 | 18.76222 | 4964 ft | 153 kts | 15° |
| 2026-05-05 17:00 | 69.45863 | 18.76987 | 4965 ft | 151 kts | 14° |
| 2026-05-05 17:00 | 69.46882 | 18.77686 | 4970 ft | 151 kts | 13° |
| 2026-05-05 17:00 | 69.47907 | 18.78354 | 4966 ft | 151 kts | 13° |
| 2026-05-05 17:01 | 69.48931 | 18.79027 | 4970 ft | 151 kts | 14° |
| 2026-05-05 17:01 | 69.49948 | 18.79701 | 4890 ft | 156 kts | 13° |
| 2026-05-05 17:01 | 69.51048 | 18.80422 | 4606 ft | 167 kts | 14° |
| 2026-05-05 17:01 | 69.52200 | 18.81189 | 4289 ft | 172 kts | 14° |
| 2026-05-05 17:02 | 69.53374 | 18.81961 | 3953 ft | 174 kts | 15° |
| 2026-05-05 17:02 | 69.54552 | 18.82738 | 3629 ft | 173 kts | 13° |
| 2026-05-05 17:02 | 69.55710 | 18.83491 | 3312 ft | 168 kts | 14° |
| 2026-05-05 17:02 | 69.56839 | 18.84255 | 2999 ft | 166 kts | 14° |
| 2026-05-05 17:03 | 69.57956 | 18.84987 | 2688 ft | 163 kts | 14° |
| 2026-05-05 17:03 | 69.59049 | 18.85704 | 2382 ft | 159 kts | 13° |
| 2026-05-05 17:03 | 69.60084 | 18.86382 | 2094 ft | 147 kts | 14° |
| 2026-05-05 17:03 | 69.61041 | 18.87024 | 1837 ft | 141 kts | 12° |
| 2026-05-05 17:04 | 69.61986 | 18.87650 | 1561 ft | 138 kts | 13° |
| 2026-05-05 17:04 | 69.62917 | 18.88278 | 1302 ft | 137 kts | 12° |
| 2026-05-05 17:04 | 69.63838 | 18.88880 | 1041 ft | 133 kts | 13° |
| 2026-05-05 17:04 | 69.64693 | 18.89473 | 814 ft | 121 kts | 13° |
| 2026-05-05 17:05 | 69.65497 | 18.89984 | 607 ft | 116 kts | 14° |
| 2026-05-05 17:05 | 69.66223 | 18.90454 | 426 ft | 100 kts | 12° |
| 2026-05-05 17:05 | 69.66882 | 18.90886 | 187 ft | 93 kts | 18° |
| 2026-05-05 17:05 | 69.67480 | 18.91328 | 46 ft | 84 kts | 15° |
| 2026-05-05 17:06 | 69.67955 | 18.91647 | 32 ft | 50 kts | 11° |
| 2026-05-05 17:06 | 69.68082 | 18.91413 | 30 ft | 24 kts | 298° |
| 2026-05-05 17:06 | 69.68229 | 18.91435 | 29 ft | 24 kts | 13° |
| 2026-05-05 17:06 | 69.68394 | 18.91504 | 28 ft | 20 kts | 2° |
| 2026-05-05 17:07 | 69.68515 | 18.91495 | 27 ft | 10 kts | 308° |
| 2026-05-05 17:07 | 69.68527 | 18.91380 | 27 ft | 3 kts | 283° |
| 2026-05-05 17:07 | 69.68528 | 18.91371 | 27 ft | 0 kts | 282° |